Flugplatz Kamen-Heeren (UL)

Hier findest Du alle Informationen zum Flugplatz Kamen-Heeren (UL).

Informationen für Piloten zum Flugplatz Kamen-Heeren

Hier findest Du alle relevanten Informationen, die Du als Pilot benötigst, um Kamen-Heeren anzufliegen.

Flugplatz: Kamen-Heeren ICAO-Code: UL Flugplatz
Frequenz Turm: 124.485 Mhz GAFOR Gebiet: 33
Frequenz Ground: 124.485 Mhz Mogas: ja
Platzrunde: N 1200 ft Landegebühr: 3 €
Platzhöhe: - Sunrise: 07:01 Uhr UTC
Pisten: 11/29 - 450 m x 15 m, GRAS Sunset: 16:24 Uhr UTC

Flugwetter am Flugplatz Kamen-Heeren

Die METAR Information stammen aus EDLW (10.44 km entfernt).

METAR Code:
2023/01/15 18:20
EDLW 151820Z 22019KT 9999 BKN031 06/01 Q1001

Flugschulen am Flugplatz Kamen-Heeren

Am Flugplatz Kamen-Heeren gibt es eine Flugschule.

Benachbarte Flugplätze und Flugschulen

Es gibt 21 weitere Flugplätze in einem Umkreis von 50 km um den Flugplatz Kamen-Heeren.

Jetzt anmelden

Passwort vergessen

Umfrage Archiv

Sendet Ihr ADS-B und/oder FLARM?

Ja
84.5 %
Nein
15.5 %
Stimmen: 277 | Diskussion
Anzeige: Roland Aircraft
Statistik Alle Mitglieder

Aktuell sind 52 Besucher online, davon 1 Mitglied und 51 Gäste.


Mitglieder online:
Higgy 

Anzeige: EasyVFR